sensor_id;sensor_type;location;lat;lon;timestamp;temperature;humidity
28336;DHT22;15592;53.656;7.276;2022-12-04T00:01:06;2.30;99.90
28336;DHT22;15592;53.656;7.276;2022-12-04T00:03:32;2.20;99.90
28336;DHT22;15592;53.656;7.276;2022-12-04T00:06:03;2.30;99.90
28336;DHT22;15592;53.656;7.276;2022-12-04T00:08:29;2.20;99.90
28336;DHT22;15592;53.656;7.276;2022-12-04T00:10:54;2.30;99.90
28336;DHT22;15592;53.656;7.276;2022-12-04T00:13:20;2.30;99.90
28336;DHT22;15592;53.656;7.276;2022-12-04T00:15:46;2.20;99.90
28336;DHT22;15592;53.656;7.276;2022-12-04T00:18:11;2.20;99.90
28336;DHT22;15592;53.656;7.276;2022-12-04T00:20:40;2.20;99.90
28336;DHT22;15592;53.656;7.276;2022-12-04T00:23:06;2.20;99.90
28336;DHT22;15592;53.656;7.276;2022-12-04T00:25:31;2.20;99.90
28336;DHT22;15592;53.656;7.276;2022-12-04T00:27:57;2.10;99.90
28336;DHT22;15592;53.656;7.276;2022-12-04T00:30:23;2.20;99.90
28336;DHT22;15592;53.656;7.276;2022-12-04T00:32:48;2.20;99.90
28336;DHT22;15592;53.656;7.276;2022-12-04T00:35:14;2.20;99.90
28336;DHT22;15592;53.656;7.276;2022-12-04T00:37:40;2.20;99.90
28336;DHT22;15592;53.656;7.276;2022-12-04T00:40:06;2.20;99.90
28336;DHT22;15592;53.656;7.276;2022-12-04T00:42:32;2.20;99.90
28336;DHT22;15592;53.656;7.276;2022-12-04T00:44:58;2.10;99.90
28336;DHT22;15592;53.656;7.276;2022-12-04T00:47:23;2.10;99.90
28336;DHT22;15592;53.656;7.276;2022-12-04T00:49:49;2.10;99.90
28336;DHT22;15592;53.656;7.276;2022-12-04T00:52:15;2.10;99.90
28336;DHT22;15592;53.656;7.276;2022-12-04T00:54:40;2.10;99.90
28336;DHT22;15592;53.656;7.276;2022-12-04T00:57:06;2.10;99.90
28336;DHT22;15592;53.656;7.276;2022-12-04T00:59:31;2.10;99.90
28336;DHT22;15592;53.656;7.276;2022-12-04T01:01:57;2.10;99.90
28336;DHT22;15592;53.656;7.276;2022-12-04T01:04:23;2.10;99.90
28336;DHT22;15592;53.656;7.276;2022-12-04T01:06:48;2.10;99.90
28336;DHT22;15592;53.656;7.276;2022-12-04T01:09:14;2.10;99.90
28336;DHT22;15592;53.656;7.276;2022-12-04T01:11:40;2.10;99.90
28336;DHT22;15592;53.656;7.276;2022-12-04T01:14:06;2.10;99.90
28336;DHT22;15592;53.656;7.276;2022-12-04T01:16:35;2.10;99.90
28336;DHT22;15592;53.656;7.276;2022-12-04T01:19:01;2.10;99.90
28336;DHT22;15592;53.656;7.276;2022-12-04T01:21:27;2.00;99.90
28336;DHT22;15592;53.656;7.276;2022-12-04T01:23:53;2.00;99.90
28336;DHT22;15592;53.656;7.276;2022-12-04T01:26:18;2.00;99.90
28336;DHT22;15592;53.656;7.276;2022-12-04T01:28:44;2.00;99.90
28336;DHT22;15592;53.656;7.276;2022-12-04T01:31:13;2.00;99.90
28336;DHT22;15592;53.656;7.276;2022-12-04T01:33:39;2.00;99.90
28336;DHT22;15592;53.656;7.276;2022-12-04T01:36:09;1.90;99.90
28336;DHT22;15592;53.656;7.276;2022-12-04T01:38:35;2.00;99.90
28336;DHT22;15592;53.656;7.276;2022-12-04T01:41:01;1.90;99.90
28336;DHT22;15592;53.656;7.276;2022-12-04T01:43:29;1.90;99.90
28336;DHT22;15592;53.656;7.276;2022-12-04T01:45:57;1.90;99.90
28336;DHT22;15592;53.656;7.276;2022-12-04T01:48:25;1.90;99.90
28336;DHT22;15592;53.656;7.276;2022-12-04T01:50:54;1.90;99.90
28336;DHT22;15592;53.656;7.276;2022-12-04T01:53:21;1.90;99.90
28336;DHT22;15592;53.656;7.276;2022-12-04T01:55:47;1.90;99.90
28336;DHT22;15592;53.656;7.276;2022-12-04T01:58:14;1.90;99.90
28336;DHT22;15592;53.656;7.276;2022-12-04T02:00:41;1.90;99.90
28336;DHT22;15592;53.656;7.276;2022-12-04T02:03:07;1.80;99.90
28336;DHT22;15592;53.656;7.276;2022-12-04T02:05:33;1.80;99.90
28336;DHT22;15592;53.656;7.276;2022-12-04T02:08:01;1.80;99.90
28336;DHT22;15592;53.656;7.276;2022-12-04T02:10:52;1.70;99.90
28336;DHT22;15592;53.656;7.276;2022-12-04T02:13:28;1.60;99.90
28336;DHT22;15592;53.656;7.276;2022-12-04T02:19:32;1.50;99.90
28336;DHT22;15592;53.656;7.276;2022-12-04T02:21:29;1.50;99.90
28336;DHT22;15592;53.656;7.276;2022-12-04T02:24:39;1.50;99.90
28336;DHT22;15592;53.656;7.276;2022-12-04T02:27:05;1.50;99.90
28336;DHT22;15592;53.656;7.276;2022-12-04T02:32:18;1.40;99.90
28336;DHT22;15592;53.656;7.276;2022-12-04T02:38:09;1.40;99.90
28336;DHT22;15592;53.656;7.276;2022-12-04T02:43:18;1.40;99.90
28336;DHT22;15592;53.656;7.276;2022-12-04T02:45:48;1.40;99.90
28336;DHT22;15592;53.656;7.276;2022-12-04T02:48:18;1.40;99.90
28336;DHT22;15592;53.656;7.276;2022-12-04T02:50:47;1.30;99.90
28336;DHT22;15592;53.656;7.276;2022-12-04T02:53:19;1.30;99.90
28336;DHT22;15592;53.656;7.276;2022-12-04T02:55:52;1.20;99.90
28336;DHT22;15592;53.656;7.276;2022-12-04T02:58:33;1.20;99.90
28336;DHT22;15592;53.656;7.276;2022-12-04T03:01:02;1.20;99.90
28336;DHT22;15592;53.656;7.276;2022-12-04T03:03:54;1.20;99.90
28336;DHT22;15592;53.656;7.276;2022-12-04T03:06:23;1.20;99.90
28336;DHT22;15592;53.656;7.276;2022-12-04T03:08:57;1.10;99.90
28336;DHT22;15592;53.656;7.276;2022-12-04T03:11:27;1.20;99.90
28336;DHT22;15592;53.656;7.276;2022-12-04T03:13:59;1.20;99.90
28336;DHT22;15592;53.656;7.276;2022-12-04T03:16:30;1.20;99.90
28336;DHT22;15592;53.656;7.276;2022-12-04T03:19:26;1.20;99.90
28336;DHT22;15592;53.656;7.276;2022-12-04T03:22:02;1.20;99.90
28336;DHT22;15592;53.656;7.276;2022-12-04T03:24:35;1.20;99.90
28336;DHT22;15592;53.656;7.276;2022-12-04T03:27:14;1.20;99.90
28336;DHT22;15592;53.656;7.276;2022-12-04T03:32:38;1.20;99.90
28336;DHT22;15592;53.656;7.276;2022-12-04T03:35:32;1.20;99.90
28336;DHT22;15592;53.656;7.276;2022-12-04T03:38:01;1.20;99.90
28336;DHT22;15592;53.656;7.276;2022-12-04T03:43:41;1.20;99.90
28336;DHT22;15592;53.656;7.276;2022-12-04T03:46:16;1.10;99.90
28336;DHT22;15592;53.656;7.276;2022-12-04T03:49:01;1.20;99.90
28336;DHT22;15592;53.656;7.276;2022-12-04T03:54:21;1.10;99.90
28336;DHT22;15592;53.656;7.276;2022-12-04T03:56:55;1.10;99.90
28336;DHT22;15592;53.656;7.276;2022-12-04T03:59:26;1.10;99.90
28336;DHT22;15592;53.656;7.276;2022-12-04T04:01:56;1.20;99.90
28336;DHT22;15592;53.656;7.276;2022-12-04T04:04:30;1.10;99.90
28336;DHT22;15592;53.656;7.276;2022-12-04T04:07:06;1.10;99.90
28336;DHT22;15592;53.656;7.276;2022-12-04T04:09:36;1.10;99.90
28336;DHT22;15592;53.656;7.276;2022-12-04T04:12:16;1.20;99.90
28336;DHT22;15592;53.656;7.276;2022-12-04T04:14:48;1.20;99.90
28336;DHT22;15592;53.656;7.276;2022-12-04T04:17:38;1.10;99.90
28336;DHT22;15592;53.656;7.276;2022-12-04T04:20:48;1.20;99.90
28336;DHT22;15592;53.656;7.276;2022-12-04T04:23:37;1.20;99.90
28336;DHT22;15592;53.656;7.276;2022-12-04T04:26:24;1.20;99.90
28336;DHT22;15592;53.656;7.276;2022-12-04T04:28:51;1.10;99.90
28336;DHT22;15592;53.656;7.276;2022-12-04T04:42:49;1.20;99.90
28336;DHT22;15592;53.656;7.276;2022-12-04T04:45:21;1.20;99.90
28336;DHT22;15592;53.656;7.276;2022-12-04T04:48:01;1.20;99.90
28336;DHT22;15592;53.656;7.276;2022-12-04T04:50:28;1.20;99.90
28336;DHT22;15592;53.656;7.276;2022-12-04T04:52:58;1.20;99.90
28336;DHT22;15592;53.656;7.276;2022-12-04T04:55:26;1.20;99.90
28336;DHT22;15592;53.656;7.276;2022-12-04T04:57:52;1.20;99.90
28336;DHT22;15592;53.656;7.276;2022-12-04T05:00:21;1.20;99.90
28336;DHT22;15592;53.656;7.276;2022-12-04T05:02:47;1.20;99.90
28336;DHT22;15592;53.656;7.276;2022-12-04T05:05:16;1.20;99.90
28336;DHT22;15592;53.656;7.276;2022-12-04T05:07:42;1.20;99.90
28336;DHT22;15592;53.656;7.276;2022-12-04T05:10:08;1.20;99.90
28336;DHT22;15592;53.656;7.276;2022-12-04T05:12:34;1.10;99.90
28336;DHT22;15592;53.656;7.276;2022-12-04T05:15:00;1.20;99.90
28336;DHT22;15592;53.656;7.276;2022-12-04T05:17:25;1.20;99.90
28336;DHT22;15592;53.656;7.276;2022-12-04T05:19:51;1.10;99.90
28336;DHT22;15592;53.656;7.276;2022-12-04T05:22:32;1.20;99.90
28336;DHT22;15592;53.656;7.276;2022-12-04T05:24:58;1.20;99.90
28336;DHT22;15592;53.656;7.276;2022-12-04T05:27:25;1.20;99.90
28336;DHT22;15592;53.656;7.276;2022-12-04T05:29:52;1.20;99.90
28336;DHT22;15592;53.656;7.276;2022-12-04T05:32:18;1.20;99.90
28336;DHT22;15592;53.656;7.276;2022-12-04T05:34:47;1.20;99.90
28336;DHT22;15592;53.656;7.276;2022-12-04T05:37:12;1.20;99.90
28336;DHT22;15592;53.656;7.276;2022-12-04T05:39:39;1.20;99.90
28336;DHT22;15592;53.656;7.276;2022-12-04T05:42:04;1.20;99.90
28336;DHT22;15592;53.656;7.276;2022-12-04T05:44:30;1.20;99.90
28336;DHT22;15592;53.656;7.276;2022-12-04T05:46:56;1.20;99.90
28336;DHT22;15592;53.656;7.276;2022-12-04T05:49:21;1.20;99.90
28336;DHT22;15592;53.656;7.276;2022-12-04T05:51:49;1.20;99.90
28336;DHT22;15592;53.656;7.276;2022-12-04T05:54:14;1.20;99.90
28336;DHT22;15592;53.656;7.276;2022-12-04T05:56:40;1.20;99.90
28336;DHT22;15592;53.656;7.276;2022-12-04T05:59:06;1.20;99.90
28336;DHT22;15592;53.656;7.276;2022-12-04T06:01:32;1.20;99.90
28336;DHT22;15592;53.656;7.276;2022-12-04T06:03:57;1.20;99.90
28336;DHT22;15592;53.656;7.276;2022-12-04T06:06:25;1.20;99.90
28336;DHT22;15592;53.656;7.276;2022-12-04T06:08:54;1.30;99.90
28336;DHT22;15592;53.656;7.276;2022-12-04T06:11:22;1.30;99.90
28336;DHT22;15592;53.656;7.276;2022-12-04T06:16:23;1.30;99.90
28336;DHT22;15592;53.656;7.276;2022-12-04T06:18:58;1.30;99.90
28336;DHT22;15592;53.656;7.276;2022-12-04T06:21:26;1.30;99.90
28336;DHT22;15592;53.656;7.276;2022-12-04T06:23:53;1.30;99.90
28336;DHT22;15592;53.656;7.276;2022-12-04T06:26:22;1.30;99.90
28336;DHT22;15592;53.656;7.276;2022-12-04T06:28:48;1.30;99.90
28336;DHT22;15592;53.656;7.276;2022-12-04T06:31:15;1.30;99.90
28336;DHT22;15592;53.656;7.276;2022-12-04T06:33:41;1.40;99.90
28336;DHT22;15592;53.656;7.276;2022-12-04T06:36:11;1.40;99.90
28336;DHT22;15592;53.656;7.276;2022-12-04T06:38:37;1.40;99.90
28336;DHT22;15592;53.656;7.276;2022-12-04T06:41:08;1.40;99.90
28336;DHT22;15592;53.656;7.276;2022-12-04T06:43:37;1.40;99.90
28336;DHT22;15592;53.656;7.276;2022-12-04T06:46:18;1.40;99.90
28336;DHT22;15592;53.656;7.276;2022-12-04T06:48:50;1.40;99.90
28336;DHT22;15592;53.656;7.276;2022-12-04T06:51:32;1.40;99.90
28336;DHT22;15592;53.656;7.276;2022-12-04T06:53:58;1.40;99.90
28336;DHT22;15592;53.656;7.276;2022-12-04T06:56:27;1.40;99.90
28336;DHT22;15592;53.656;7.276;2022-12-04T06:58:54;1.40;99.90
28336;DHT22;15592;53.656;7.276;2022-12-04T07:01:23;1.50;99.90
28336;DHT22;15592;53.656;7.276;2022-12-04T07:03:49;1.50;99.90
28336;DHT22;15592;53.656;7.276;2022-12-04T07:06:21;1.50;99.90
28336;DHT22;15592;53.656;7.276;2022-12-04T07:08:49;1.50;99.90
28336;DHT22;15592;53.656;7.276;2022-12-04T07:11:27;1.50;99.90
28336;DHT22;15592;53.656;7.276;2022-12-04T07:13:55;1.50;99.90
28336;DHT22;15592;53.656;7.276;2022-12-04T07:16:22;1.50;99.90
28336;DHT22;15592;53.656;7.276;2022-12-04T07:18:48;1.50;99.90
28336;DHT22;15592;53.656;7.276;2022-12-04T07:21:26;1.60;99.90
28336;DHT22;15592;53.656;7.276;2022-12-04T07:23:54;1.50;99.90
28336;DHT22;15592;53.656;7.276;2022-12-04T07:26:20;1.60;99.90
28336;DHT22;15592;53.656;7.276;2022-12-04T07:28:47;1.60;99.90
28336;DHT22;15592;53.656;7.276;2022-12-04T07:31:18;1.60;99.90
28336;DHT22;15592;53.656;7.276;2022-12-04T07:33:44;1.60;99.90
28336;DHT22;15592;53.656;7.276;2022-12-04T07:36:13;1.60;99.90
28336;DHT22;15592;53.656;7.276;2022-12-04T07:38:39;1.60;99.90
28336;DHT22;15592;53.656;7.276;2022-12-04T07:41:05;1.60;99.90
28336;DHT22;15592;53.656;7.276;2022-12-04T07:43:32;1.70;99.90
28336;DHT22;15592;53.656;7.276;2022-12-04T07:46:02;1.70;99.90
28336;DHT22;15592;53.656;7.276;2022-12-04T07:48:28;1.70;99.90
28336;DHT22;15592;53.656;7.276;2022-12-04T07:51:05;1.70;99.90
28336;DHT22;15592;53.656;7.276;2022-12-04T07:53:32;1.80;99.90
28336;DHT22;15592;53.656;7.276;2022-12-04T07:55:58;1.80;99.90
28336;DHT22;15592;53.656;7.276;2022-12-04T07:58:23;1.80;99.90
28336;DHT22;15592;53.656;7.276;2022-12-04T08:00:49;1.80;99.90
28336;DHT22;15592;53.656;7.276;2022-12-04T08:03:14;1.80;99.90
28336;DHT22;15592;53.656;7.276;2022-12-04T08:05:40;1.80;99.90
28336;DHT22;15592;53.656;7.276;2022-12-04T08:08:06;1.80;99.90
28336;DHT22;15592;53.656;7.276;2022-12-04T08:10:31;1.90;99.90
28336;DHT22;15592;53.656;7.276;2022-12-04T08:12:57;1.90;99.90
28336;DHT22;15592;53.656;7.276;2022-12-04T08:15:34;1.90;99.90
28336;DHT22;15592;53.656;7.276;2022-12-04T08:18:00;1.90;99.90
28336;DHT22;15592;53.656;7.276;2022-12-04T08:20:31;1.90;99.90
28336;DHT22;15592;53.656;7.276;2022-12-04T08:23:00;1.90;99.90
28336;DHT22;15592;53.656;7.276;2022-12-04T08:25:26;1.90;99.90
28336;DHT22;15592;53.656;7.276;2022-12-04T08:27:52;1.90;99.90
28336;DHT22;15592;53.656;7.276;2022-12-04T08:30:17;2.00;99.90
28336;DHT22;15592;53.656;7.276;2022-12-04T08:32:43;2.00;99.90
28336;DHT22;15592;53.656;7.276;2022-12-04T08:35:08;2.00;99.90
28336;DHT22;15592;53.656;7.276;2022-12-04T08:37:34;2.00;99.90
28336;DHT22;15592;53.656;7.276;2022-12-04T08:40:00;2.00;99.90
28336;DHT22;15592;53.656;7.276;2022-12-04T08:42:25;2.00;99.90
28336;DHT22;15592;53.656;7.276;2022-12-04T08:44:51;2.10;99.90
28336;DHT22;15592;53.656;7.276;2022-12-04T08:47:17;2.10;99.90
28336;DHT22;15592;53.656;7.276;2022-12-04T08:49:42;2.10;99.90
28336;DHT22;15592;53.656;7.276;2022-12-04T08:52:08;2.10;99.90
28336;DHT22;15592;53.656;7.276;2022-12-04T08:54:33;2.20;99.90
28336;DHT22;15592;53.656;7.276;2022-12-04T08:56:59;2.20;99.90
28336;DHT22;15592;53.656;7.276;2022-12-04T08:59:25;2.20;99.90
28336;DHT22;15592;53.656;7.276;2022-12-04T09:01:51;2.20;99.90
28336;DHT22;15592;53.656;7.276;2022-12-04T09:04:17;2.30;99.90
28336;DHT22;15592;53.656;7.276;2022-12-04T09:06:42;2.30;99.90
28336;DHT22;15592;53.656;7.276;2022-12-04T09:09:08;2.30;99.90
28336;DHT22;15592;53.656;7.276;2022-12-04T09:11:34;2.30;99.90
28336;DHT22;15592;53.656;7.276;2022-12-04T09:14:03;2.30;99.90
28336;DHT22;15592;53.656;7.276;2022-12-04T09:16:29;2.40;99.90
28336;DHT22;15592;53.656;7.276;2022-12-04T09:18:55;2.40;99.90
28336;DHT22;15592;53.656;7.276;2022-12-04T09:21:22;2.40;99.90
28336;DHT22;15592;53.656;7.276;2022-12-04T09:23:48;2.40;99.90
28336;DHT22;15592;53.656;7.276;2022-12-04T09:26:24;2.50;99.90
28336;DHT22;15592;53.656;7.276;2022-12-04T09:28:51;2.50;99.90
28336;DHT22;15592;53.656;7.276;2022-12-04T09:31:17;2.50;99.90
28336;DHT22;15592;53.656;7.276;2022-12-04T09:33:43;2.50;99.90
28336;DHT22;15592;53.656;7.276;2022-12-04T09:36:09;2.60;99.90
28336;DHT22;15592;53.656;7.276;2022-12-04T09:38:44;2.60;99.90
28336;DHT22;15592;53.656;7.276;2022-12-04T09:44:04;2.60;99.90
28336;DHT22;15592;53.656;7.276;2022-12-04T09:46:39;2.70;99.90
28336;DHT22;15592;53.656;7.276;2022-12-04T09:52:41;2.70;99.90
28336;DHT22;15592;53.656;7.276;2022-12-04T09:55:19;2.70;99.90
28336;DHT22;15592;53.656;7.276;2022-12-04T09:57:48;2.70;99.90
28336;DHT22;15592;53.656;7.276;2022-12-04T10:00:18;2.80;99.90
28336;DHT22;15592;53.656;7.276;2022-12-04T10:02:49;2.80;99.90
28336;DHT22;15592;53.656;7.276;2022-12-04T10:05:26;2.80;99.90
28336;DHT22;15592;53.656;7.276;2022-12-04T10:08:04;2.90;99.90
28336;DHT22;15592;53.656;7.276;2022-12-04T10:21:48;3.00;99.90
28336;DHT22;15592;53.656;7.276;2022-12-04T10:24:23;3.00;99.90
28336;DHT22;15592;53.656;7.276;2022-12-04T10:26:50;3.00;99.90
28336;DHT22;15592;53.656;7.276;2022-12-04T10:29:22;3.00;99.90
28336;DHT22;15592;53.656;7.276;2022-12-04T10:31:49;3.00;99.90
28336;DHT22;15592;53.656;7.276;2022-12-04T10:34:25;3.00;99.90
28336;DHT22;15592;53.656;7.276;2022-12-04T10:36:55;3.00;99.90
28336;DHT22;15592;53.656;7.276;2022-12-04T10:39:38;3.10;99.90
28336;DHT22;15592;53.656;7.276;2022-12-04T10:44:44;3.10;99.90
28336;DHT22;15592;53.656;7.276;2022-12-04T10:47:11;3.10;99.90
28336;DHT22;15592;53.656;7.276;2022-12-04T10:49:37;3.20;99.90
28336;DHT22;15592;53.656;7.276;2022-12-04T10:52:05;3.20;99.90
28336;DHT22;15592;53.656;7.276;2022-12-04T10:56:59;3.20;99.90
28336;DHT22;15592;53.656;7.276;2022-12-04T10:59:25;3.20;99.90
28336;DHT22;15592;53.656;7.276;2022-12-04T11:04:42;3.30;99.90
28336;DHT22;15592;53.656;7.276;2022-12-04T11:07:25;3.30;99.90
28336;DHT22;15592;53.656;7.276;2022-12-04T11:12:23;3.30;99.90
28336;DHT22;15592;53.656;7.276;2022-12-04T11:17:25;3.30;99.90
28336;DHT22;15592;53.656;7.276;2022-12-04T11:20:24;3.30;99.90
28336;DHT22;15592;53.656;7.276;2022-12-04T11:22:56;3.30;99.90
28336;DHT22;15592;53.656;7.276;2022-12-04T11:25:25;3.30;99.90
28336;DHT22;15592;53.656;7.276;2022-12-04T11:27:54;3.30;99.90
28336;DHT22;15592;53.656;7.276;2022-12-04T11:30:24;3.30;99.90
28336;DHT22;15592;53.656;7.276;2022-12-04T11:32:51;3.40;99.90
28336;DHT22;15592;53.656;7.276;2022-12-04T11:35:22;3.40;99.90
28336;DHT22;15592;53.656;7.276;2022-12-04T11:38:00;3.40;99.90
28336;DHT22;15592;53.656;7.276;2022-12-04T11:40:27;3.40;99.90
28336;DHT22;15592;53.656;7.276;2022-12-04T11:43:04;3.40;99.90
28336;DHT22;15592;53.656;7.276;2022-12-04T11:45:31;3.40;99.90
28336;DHT22;15592;53.656;7.276;2022-12-04T11:47:59;3.40;99.90
28336;DHT22;15592;53.656;7.276;2022-12-04T12:16:11;3.60;99.90
28336;DHT22;15592;53.656;7.276;2022-12-04T12:21:26;3.60;99.90
28336;DHT22;15592;53.656;7.276;2022-12-04T12:34:52;3.70;99.90
28336;DHT22;15592;53.656;7.276;2022-12-04T12:37:32;3.80;99.90
28336;DHT22;15592;53.656;7.276;2022-12-04T12:43:32;3.80;99.90
28336;DHT22;15592;53.656;7.276;2022-12-04T12:46:01;3.80;99.90
28336;DHT22;15592;53.656;7.276;2022-12-04T12:48:34;3.80;99.90
28336;DHT22;15592;53.656;7.276;2022-12-04T12:51:26;3.80;99.90
28336;DHT22;15592;53.656;7.276;2022-12-04T12:53:57;3.90;99.90
28336;DHT22;15592;53.656;7.276;2022-12-04T12:56:38;3.90;99.90
28336;DHT22;15592;53.656;7.276;2022-12-04T12:59:16;3.90;99.90
28336;DHT22;15592;53.656;7.276;2022-12-04T13:01:56;3.90;99.90
28336;DHT22;15592;53.656;7.276;2022-12-04T13:04:41;3.90;99.90
28336;DHT22;15592;53.656;7.276;2022-12-04T13:07:15;3.90;99.90
28336;DHT22;15592;53.656;7.276;2022-12-04T13:15:21;4.00;99.90
28336;DHT22;15592;53.656;7.276;2022-12-04T13:17:50;4.00;99.90
28336;DHT22;15592;53.656;7.276;2022-12-04T13:20:30;4.00;99.90
28336;DHT22;15592;53.656;7.276;2022-12-04T13:28:46;4.00;99.90
28336;DHT22;15592;53.656;7.276;2022-12-04T13:34:45;4.00;99.90
28336;DHT22;15592;53.656;7.276;2022-12-04T13:42:40;4.00;99.90
28336;DHT22;15592;53.656;7.276;2022-12-04T13:45:11;4.00;99.90
28336;DHT22;15592;53.656;7.276;2022-12-04T13:47:37;4.00;99.90
28336;DHT22;15592;53.656;7.276;2022-12-04T13:52:39;4.00;99.90
28336;DHT22;15592;53.656;7.276;2022-12-04T13:55:36;4.00;99.90
28336;DHT22;15592;53.656;7.276;2022-12-04T13:58:26;4.00;99.90
28336;DHT22;15592;53.656;7.276;2022-12-04T14:01:23;3.90;99.90
28336;DHT22;15592;53.656;7.276;2022-12-04T14:03:50;3.90;99.90
28336;DHT22;15592;53.656;7.276;2022-12-04T14:06:23;3.90;99.90
28336;DHT22;15592;53.656;7.276;2022-12-04T14:08:55;3.90;99.90
28336;DHT22;15592;53.656;7.276;2022-12-04T14:11:23;3.90;99.90
28336;DHT22;15592;53.656;7.276;2022-12-04T14:13:52;3.90;99.90
28336;DHT22;15592;53.656;7.276;2022-12-04T14:16:25;3.90;99.90
28336;DHT22;15592;53.656;7.276;2022-12-04T14:18:58;3.90;99.90
28336;DHT22;15592;53.656;7.276;2022-12-04T14:21:27;3.90;99.90
28336;DHT22;15592;53.656;7.276;2022-12-04T14:24:12;3.90;99.90
28336;DHT22;15592;53.656;7.276;2022-12-04T14:26:47;3.90;99.90
28336;DHT22;15592;53.656;7.276;2022-12-04T14:29:44;3.80;99.90
28336;DHT22;15592;53.656;7.276;2022-12-04T14:32:18;3.90;99.90
28336;DHT22;15592;53.656;7.276;2022-12-04T14:34:45;3.90;99.90
28336;DHT22;15592;53.656;7.276;2022-12-04T14:37:33;3.90;99.90
28336;DHT22;15592;53.656;7.276;2022-12-04T14:40:03;3.80;99.90
28336;DHT22;15592;53.656;7.276;2022-12-04T14:42:38;3.90;99.90
28336;DHT22;15592;53.656;7.276;2022-12-04T15:00:03;3.90;99.90
28336;DHT22;15592;53.656;7.276;2022-12-04T15:02:43;3.90;99.90
28336;DHT22;15592;53.656;7.276;2022-12-04T15:05:47;3.90;99.90
28336;DHT22;15592;53.656;7.276;2022-12-04T15:08:13;3.90;99.90
28336;DHT22;15592;53.656;7.276;2022-12-04T15:10:49;3.80;99.90
28336;DHT22;15592;53.656;7.276;2022-12-04T15:13:36;3.90;99.90
28336;DHT22;15592;53.656;7.276;2022-12-04T15:16:19;3.90;99.90
28336;DHT22;15592;53.656;7.276;2022-12-04T15:19:01;3.90;99.90
28336;DHT22;15592;53.656;7.276;2022-12-04T15:21:38;3.90;99.90
28336;DHT22;15592;53.656;7.276;2022-12-04T15:24:09;3.90;99.90
28336;DHT22;15592;53.656;7.276;2022-12-04T15:26:36;3.90;99.90
28336;DHT22;15592;53.656;7.276;2022-12-04T15:29:04;3.90;99.90
28336;DHT22;15592;53.656;7.276;2022-12-04T15:31:39;3.90;99.90
28336;DHT22;15592;53.656;7.276;2022-12-04T15:34:13;3.90;99.90
28336;DHT22;15592;53.656;7.276;2022-12-04T15:39:20;4.00;99.90
28336;DHT22;15592;53.656;7.276;2022-12-04T15:41:47;4.00;99.90
28336;DHT22;15592;53.656;7.276;2022-12-04T15:44:34;4.00;99.90
28336;DHT22;15592;53.656;7.276;2022-12-04T15:47:04;4.00;99.90
28336;DHT22;15592;53.656;7.276;2022-12-04T15:49:39;4.00;99.90
28336;DHT22;15592;53.656;7.276;2022-12-04T15:52:15;4.00;99.90
28336;DHT22;15592;53.656;7.276;2022-12-04T15:54:59;4.00;99.90
28336;DHT22;15592;53.656;7.276;2022-12-04T16:00:00;4.00;99.90
28336;DHT22;15592;53.656;7.276;2022-12-04T16:04:55;4.10;99.90
28336;DHT22;15592;53.656;7.276;2022-12-04T16:07:26;4.10;99.90
28336;DHT22;15592;53.656;7.276;2022-12-04T16:10:00;4.10;99.90
28336;DHT22;15592;53.656;7.276;2022-12-04T16:12:28;4.10;99.90
28336;DHT22;15592;53.656;7.276;2022-12-04T16:14:56;4.10;99.90
28336;DHT22;15592;53.656;7.276;2022-12-04T16:17:33;4.10;99.90
28336;DHT22;15592;53.656;7.276;2022-12-04T16:19:59;4.10;99.90
28336;DHT22;15592;53.656;7.276;2022-12-04T16:22:25;4.20;99.90
28336;DHT22;15592;53.656;7.276;2022-12-04T16:24:52;4.20;99.90
28336;DHT22;15592;53.656;7.276;2022-12-04T16:27:22;4.20;99.90
28336;DHT22;15592;53.656;7.276;2022-12-04T16:29:49;4.20;99.90
28336;DHT22;15592;53.656;7.276;2022-12-04T16:32:28;4.30;99.90
28336;DHT22;15592;53.656;7.276;2022-12-04T16:38:33;4.30;99.90
28336;DHT22;15592;53.656;7.276;2022-12-04T16:40:59;4.30;99.90
28336;DHT22;15592;53.656;7.276;2022-12-04T16:43:24;4.40;99.90
28336;DHT22;15592;53.656;7.276;2022-12-04T16:45:52;4.40;99.90
28336;DHT22;15592;53.656;7.276;2022-12-04T16:48:19;4.40;99.90
28336;DHT22;15592;53.656;7.276;2022-12-04T16:50:45;4.40;99.90
28336;DHT22;15592;53.656;7.276;2022-12-04T16:53:23;4.50;99.90
28336;DHT22;15592;53.656;7.276;2022-12-04T16:55:51;4.50;99.90
28336;DHT22;15592;53.656;7.276;2022-12-04T16:58:20;4.50;99.90
28336;DHT22;15592;53.656;7.276;2022-12-04T17:00:52;4.50;99.90
28336;DHT22;15592;53.656;7.276;2022-12-04T17:03:36;4.50;99.90
28336;DHT22;15592;53.656;7.276;2022-12-04T17:06:02;4.50;99.90
28336;DHT22;15592;53.656;7.276;2022-12-04T17:08:27;4.50;99.90
28336;DHT22;15592;53.656;7.276;2022-12-04T17:10:54;4.60;99.90
28336;DHT22;15592;53.656;7.276;2022-12-04T17:13:21;4.60;99.90
28336;DHT22;15592;53.656;7.276;2022-12-04T17:15:47;4.60;99.90
28336;DHT22;15592;53.656;7.276;2022-12-04T17:18:13;4.60;99.90
28336;DHT22;15592;53.656;7.276;2022-12-04T17:20:40;4.60;99.90
28336;DHT22;15592;53.656;7.276;2022-12-04T17:23:11;4.60;99.90
28336;DHT22;15592;53.656;7.276;2022-12-04T17:25:37;4.70;99.90
28336;DHT22;15592;53.656;7.276;2022-12-04T17:28:02;4.70;99.90
28336;DHT22;15592;53.656;7.276;2022-12-04T17:30:28;4.70;99.90
28336;DHT22;15592;53.656;7.276;2022-12-04T17:32:54;4.70;99.90
28336;DHT22;15592;53.656;7.276;2022-12-04T17:35:23;4.70;99.90
28336;DHT22;15592;53.656;7.276;2022-12-04T17:37:48;4.70;99.90
28336;DHT22;15592;53.656;7.276;2022-12-04T17:40:14;4.70;99.90
28336;DHT22;15592;53.656;7.276;2022-12-04T17:42:42;4.70;99.90
28336;DHT22;15592;53.656;7.276;2022-12-04T17:45:11;4.70;99.90
28336;DHT22;15592;53.656;7.276;2022-12-04T17:48:06;4.80;99.90
28336;DHT22;15592;53.656;7.276;2022-12-04T17:50:32;4.70;99.90
28336;DHT22;15592;53.656;7.276;2022-12-04T17:52:58;4.80;99.90
28336;DHT22;15592;53.656;7.276;2022-12-04T17:55:23;4.80;99.90
28336;DHT22;15592;53.656;7.276;2022-12-04T17:57:49;4.80;99.90
28336;DHT22;15592;53.656;7.276;2022-12-04T18:00:15;4.80;99.90
28336;DHT22;15592;53.656;7.276;2022-12-04T18:02:40;4.90;99.90
28336;DHT22;15592;53.656;7.276;2022-12-04T18:05:07;4.90;99.90
28336;DHT22;15592;53.656;7.276;2022-12-04T18:07:33;4.90;99.90
28336;DHT22;15592;53.656;7.276;2022-12-04T18:09:58;4.90;99.90
28336;DHT22;15592;53.656;7.276;2022-12-04T18:12:24;4.90;99.90
28336;DHT22;15592;53.656;7.276;2022-12-04T18:14:50;4.90;99.90
28336;DHT22;15592;53.656;7.276;2022-12-04T18:19:41;4.90;99.90
28336;DHT22;15592;53.656;7.276;2022-12-04T18:22:06;5.00;99.90
28336;DHT22;15592;53.656;7.276;2022-12-04T18:24:32;5.00;99.90
28336;DHT22;15592;53.656;7.276;2022-12-04T18:26:57;5.00;99.90
28336;DHT22;15592;53.656;7.276;2022-12-04T18:29:25;5.00;99.90
28336;DHT22;15592;53.656;7.276;2022-12-04T18:31:51;5.00;99.90
28336;DHT22;15592;53.656;7.276;2022-12-04T18:34:17;5.00;99.90
28336;DHT22;15592;53.656;7.276;2022-12-04T18:36:43;5.00;99.90
28336;DHT22;15592;53.656;7.276;2022-12-04T18:39:20;5.00;99.90
28336;DHT22;15592;53.656;7.276;2022-12-04T18:41:47;5.10;99.90
28336;DHT22;15592;53.656;7.276;2022-12-04T18:44:13;5.10;99.90